createdAt,value
2024-03-12T00:02:08.389Z,97977.04
2024-03-12T00:05:30.494Z,97978.22
2024-03-12T00:08:48.326Z,97982.65
2024-03-12T00:12:06.504Z,97974.55
2024-03-12T00:15:25.441Z,97978.22
2024-03-12T00:18:43.448Z,97977.38
2024-03-12T00:22:01.011Z,97976.76
2024-03-12T00:25:19.047Z,97977.38
2024-03-12T00:28:36.635Z,97975.11
2024-03-12T00:31:54.247Z,97975.11
2024-03-12T00:35:12.431Z,97972.48
2024-03-12T00:38:30.606Z,97970.45
2024-03-12T00:41:48.034Z,97969.66
2024-03-12T00:45:05.424Z,97966.37
2024-03-12T00:48:24.104Z,97964.56
2024-03-12T00:51:42.463Z,97966.21
2024-03-12T00:54:59.956Z,97969.47
2024-03-12T00:58:19.685Z,97961.09
2024-03-12T01:01:37.643Z,97957.66
2024-03-12T01:04:55.156Z,97959.30
2024-03-12T01:08:14.440Z,97956.66
2024-03-12T01:11:30.977Z,97957.66
2024-03-12T01:14:49.553Z,97949.09
2024-03-12T01:18:07.458Z,97944.94
2024-03-12T01:21:25.083Z,97958.64
2024-03-12T01:24:43.779Z,97955.35
2024-03-12T01:28:03.196Z,97952.09
2024-03-12T01:31:18.496Z,97946.17
2024-03-12T01:34:35.880Z,97952.09
2024-03-12T01:37:54.639Z,97947.45
2024-03-12T01:41:12.411Z,97946.64
2024-03-12T01:44:31.796Z,97948.47
2024-03-12T01:47:47.565Z,97933.65
2024-03-12T01:51:06.298Z,97939.73
2024-03-12T01:54:23.541Z,97939.73
2024-03-12T01:57:41.742Z,97941.19
2024-03-12T02:01:00.109Z,97930.64
2024-03-12T02:04:18.641Z,97935.58
2024-03-12T02:07:36.177Z,97937.74
2024-03-12T02:10:54.081Z,97931.48
2024-03-12T02:14:11.639Z,97934.11
2024-03-12T02:17:32.231Z,97938.55
2024-03-12T02:20:49.777Z,97929.00
2024-03-12T02:24:07.740Z,97932.47
2024-03-12T02:27:25.893Z,97933.46
2024-03-12T02:30:43.455Z,97935.91
2024-03-12T02:34:01.539Z,97933.28
2024-03-12T02:37:19.085Z,97927.39
2024-03-12T02:40:36.392Z,97929.70
2024-03-12T02:43:53.689Z,97924.91
2024-03-12T02:47:11.623Z,97933.28
2024-03-12T02:50:31.239Z,97932.28
2024-03-12T02:53:48.701Z,97937.93
2024-03-12T02:57:06.162Z,97934.27
2024-03-12T03:00:24.914Z,97924.91
2024-03-12T03:03:42.259Z,97932.47
2024-03-12T03:07:02.526Z,97930.45
2024-03-12T03:10:20.785Z,97930.30
2024-03-12T03:13:38.234Z,97930.92
2024-03-12T03:16:56.660Z,97915.95
2024-03-12T03:20:18.297Z,97921.84
2024-03-12T03:23:37.083Z,97929.75
2024-03-12T03:26:54.755Z,97921.03
2024-03-12T03:30:15.089Z,97919.76
2024-03-12T03:33:33.740Z,97927.48
2024-03-12T03:36:51.284Z,97936.04
2024-03-12T03:40:13.020Z,97934.39
2024-03-12T03:43:30.824Z,97928.75
2024-03-12T03:46:48.806Z,97935.20
2024-03-12T03:50:07.524Z,97940.66
2024-03-12T03:53:24.983Z,97933.93
2024-03-12T03:56:42.472Z,97945.13
2024-03-12T03:59:59.815Z,97940.47
2024-03-12T04:03:17.484Z,97937.03
2024-03-12T04:06:35.925Z,97939.02
2024-03-12T04:09:53.236Z,97937.84
2024-03-12T04:13:11.435Z,97935.58
2024-03-12T04:16:28.959Z,97940.84
2024-03-12T04:19:48.117Z,97952.38
2024-03-12T04:23:05.434Z,97935.73
2024-03-12T04:26:22.824Z,97935.58
2024-03-12T04:29:40.311Z,97938.83
2024-03-12T04:32:58.747Z,97938.20
2024-03-12T04:36:18.527Z,97938.20
2024-03-12T04:39:40.657Z,97949.93
2024-03-12T04:42:58.128Z,97948.75
2024-03-12T04:46:16.171Z,97946.27
2024-03-12T04:49:34.116Z,97949.93
2024-03-12T04:52:52.021Z,97954.36
2024-03-12T04:56:10.528Z,97960.81
2024-03-12T04:59:29.351Z,97962.64
2024-03-12T05:02:46.898Z,97974.98
2024-03-12T05:06:04.386Z,97975.45
2024-03-12T05:09:24.784Z,97967.54
2024-03-12T05:12:42.370Z,97971.36
2024-03-12T05:16:00.210Z,97975.81
2024-03-12T05:19:17.843Z,97973.80
2024-03-12T05:22:35.756Z,97983.72
2024-03-12T05:25:53.778Z,97987.16
2024-03-12T05:29:11.936Z,97983.72
2024-03-12T05:32:29.423Z,97980.91
2024-03-12T05:35:49.702Z,97990.27
2024-03-12T05:39:12.234Z,97999.83
2024-03-12T05:42:49.555Z,97992.57
2024-03-12T05:46:17.677Z,98009.84
2024-03-12T05:49:35.316Z,98005.38
2024-03-12T05:52:52.947Z,98005.56
2024-03-12T05:56:16.856Z,98006.74
2024-03-12T05:59:33.030Z,98003.27
2024-03-12T06:02:51.825Z,98008.54
2024-03-12T06:06:09.902Z,98015.45
2024-03-12T06:09:27.329Z,98008.07
2024-03-12T06:12:44.920Z,98011.17
2024-03-12T06:16:03.391Z,98015.27
2024-03-12T06:19:21.459Z,98021.85
2024-03-12T06:22:39.004Z,98022.01
2024-03-12T06:25:58.766Z,98029.29
2024-03-12T06:29:16.845Z,98022.84
2024-03-12T06:32:39.476Z,98019.03
2024-03-12T06:35:57.120Z,98024.48
2024-03-12T06:39:16.296Z,98028.11
2024-03-12T06:42:33.827Z,98029.77
2024-03-12T06:45:51.791Z,98032.03
2024-03-12T06:49:11.124Z,98027.59
2024-03-12T06:52:28.613Z,98038.30
2024-03-12T06:55:47.629Z,98041.95
2024-03-12T06:59:03.610Z,98046.05
2024-03-12T07:02:20.790Z,98047.04
2024-03-12T07:05:39.551Z,98044.03
2024-03-12T07:08:59.131Z,98046.48
2024-03-12T07:12:18.550Z,98048.32
2024-03-12T07:15:35.052Z,98056.23
2024-03-12T07:18:52.518Z,98051.95
2024-03-12T07:22:11.049Z,98062.31
2024-03-12T07:25:28.611Z,98070.69
2024-03-12T07:28:46.604Z,98059.16
2024-03-12T07:32:04.331Z,98063.44
2024-03-12T07:35:23.333Z,98067.91
2024-03-12T07:38:40.725Z,98068.37
2024-03-12T07:41:58.821Z,98064.89
2024-03-12T07:45:18.712Z,98058.81
2024-03-12T07:48:35.969Z,98071.01
2024-03-12T07:51:54.553Z,98065.89
2024-03-12T07:55:15.138Z,98067.20
2024-03-12T07:58:32.611Z,98071.30
2024-03-12T08:01:51.538Z,98073.56
2024-03-12T08:05:10.394Z,98082.75
2024-03-12T08:08:28.568Z,98085.23
2024-03-12T08:11:46.439Z,98085.23
2024-03-12T08:15:03.828Z,98089.52
2024-03-12T08:18:22.162Z,98099.70
2024-03-12T08:21:39.959Z,98086.52
2024-03-12T08:25:02.836Z,98098.34
2024-03-12T08:28:22.687Z,98097.16
2024-03-12T08:31:47.474Z,98101.91
2024-03-12T08:34:59.511Z,98099.09
2024-03-12T08:38:18.001Z,98094.47
2024-03-12T08:41:37.083Z,98097.77
2024-03-12T08:44:56.854Z,98097.58
2024-03-12T08:48:16.265Z,98098.85
2024-03-12T08:51:36.230Z,98096.49
2024-03-12T08:54:53.705Z,98097.95
2024-03-12T08:58:12.310Z,98099.07
2024-03-12T09:01:30.811Z,98096.52
2024-03-12T09:04:48.525Z,98097.70
2024-03-12T09:08:06.800Z,98110.55
2024-03-12T09:11:24.932Z,98102.98
2024-03-12T09:14:42.849Z,98118.81
2024-03-12T09:18:02.673Z,98116.83
2024-03-12T09:21:22.985Z,98123.22
2024-03-12T09:24:41.088Z,98121.20
2024-03-12T09:27:58.803Z,98121.33
2024-03-12T09:31:16.736Z,98118.31
2024-03-12T09:34:37.700Z,98126.31
2024-03-12T09:37:55.992Z,98125.23
2024-03-12T09:41:18.524Z,98126.78
2024-03-12T09:44:38.060Z,98132.71
2024-03-12T09:47:56.163Z,98142.55
2024-03-12T09:51:14.537Z,98140.56
2024-03-12T09:54:34.674Z,98141.37
2024-03-12T09:57:52.321Z,98146.66
2024-03-12T10:01:11.497Z,98140.38
2024-03-12T10:04:29.783Z,98142.83
2024-03-12T10:08:03.965Z,98141.64
2024-03-12T10:11:29.200Z,98138.81
2024-03-12T10:14:47.081Z,98143.28
2024-03-12T10:18:09.764Z,98141.11
2024-03-12T10:21:31.836Z,98136.02
2024-03-12T10:24:49.860Z,98138.66
2024-03-12T10:28:08.504Z,98141.64
2024-03-12T10:31:30.813Z,98142.29
2024-03-12T10:34:49.165Z,98146.20
2024-03-12T10:38:09.063Z,98141.56
2024-03-12T10:41:28.263Z,98139.66
2024-03-12T10:44:44.250Z,98133.98
2024-03-12T10:48:02.978Z,98141.38
2024-03-12T10:51:26.241Z,98143.28
2024-03-12T10:54:45.784Z,98147.88
2024-03-12T10:58:05.075Z,98140.10
2024-03-12T11:01:25.076Z,98147.06
2024-03-12T11:04:44.216Z,98148.33
2024-03-12T11:08:07.416Z,98153.96
2024-03-12T11:11:27.787Z,98151.97
2024-03-12T11:14:43.497Z,98149.70
2024-03-12T11:18:01.449Z,98146.03
2024-03-12T11:21:30.717Z,98143.23
2024-03-12T11:24:54.361Z,98148.97
2024-03-12T11:28:29.368Z,98144.95
2024-03-12T11:31:48.031Z,98151.42
2024-03-12T11:35:06.860Z,98150.88
2024-03-12T11:38:24.140Z,98142.56
2024-03-12T11:42:19.202Z,98153.95
2024-03-12T11:45:55.402Z,98144.83
2024-03-12T11:49:31.561Z,98150.76
2024-03-12T11:52:51.773Z,98147.12
2024-03-12T11:56:27.215Z,98141.19
2024-03-12T11:59:45.130Z,98148.95
2024-03-12T12:03:04.905Z,98154.23
2024-03-12T12:06:23.454Z,98155.69
2024-03-12T12:09:41.544Z,98159.34
2024-03-12T12:12:59.083Z,98156.05
2024-03-12T12:16:18.112Z,98157.14
2024-03-12T12:19:42.296Z,98154.56
2024-03-12T12:22:57.778Z,98159.66
2024-03-12T12:26:20.995Z,98157.47
2024-03-12T12:29:40.370Z,98159.31
2024-03-12T12:32:59.918Z,98156.56
2024-03-12T12:36:21.182Z,98157.59
2024-03-12T12:39:47.363Z,98161.31
2024-03-12T12:43:00.339Z,98157.59
2024-03-12T12:46:25.088Z,98158.80
2024-03-12T12:49:42.799Z,98154.66
2024-03-12T12:53:10.146Z,98154.77
2024-03-12T12:56:30.639Z,98156.66
2024-03-12T12:59:49.234Z,98164.86
2024-03-12T13:03:24.444Z,98168.95
2024-03-12T13:06:48.496Z,98163.02
2024-03-12T13:10:20.768Z,98155.47
2024-03-12T13:13:39.675Z,98169.50
2024-03-12T13:16:57.310Z,98171.79
2024-03-12T13:20:18.963Z,98164.86
2024-03-12T13:23:36.482Z,98172.98
2024-03-12T13:26:54.258Z,98179.08
2024-03-12T13:30:16.791Z,98176.44
2024-03-12T13:33:34.216Z,98179.92
2024-03-12T13:36:51.743Z,98184.37
2024-03-12T13:40:13.026Z,98186.56
2024-03-12T13:43:32.867Z,98190.39
2024-03-12T13:46:50.307Z,98187.75
2024-03-12T13:50:09.169Z,98190.85
2024-03-12T13:53:28.416Z,98189.85
2024-03-12T13:56:47.383Z,98200.78
2024-03-12T14:00:06.635Z,98191.78
2024-03-12T14:03:27.301Z,98188.23
2024-03-12T14:06:45.333Z,98194.52
2024-03-12T14:10:05.222Z,98198.06
2024-03-12T14:13:24.354Z,98201.36
2024-03-12T14:16:41.780Z,98201.81
2024-03-12T14:19:59.260Z,98205.45
2024-03-12T14:23:18.941Z,98205.45
2024-03-12T14:26:37.103Z,98198.71
2024-03-12T14:30:02.242Z,98204.35
2024-03-12T14:33:19.987Z,98201.70
2024-03-12T14:36:37.463Z,98210.19
2024-03-12T14:39:55.800Z,98200.34
2024-03-12T14:43:16.787Z,98205.63
2024-03-12T14:46:36.002Z,98204.82
2024-03-12T14:49:55.071Z,98204.17
2024-03-12T14:53:14.024Z,98199.53
2024-03-12T14:56:32.951Z,98201.37
2024-03-12T14:59:53.490Z,98206.66
2024-03-12T15:03:14.239Z,98216.58
2024-03-12T15:06:32.075Z,98214.75
2024-03-12T15:09:50.942Z,98211.30
2024-03-12T15:13:08.636Z,98219.42
2024-03-12T15:16:27.671Z,98216.39
2024-03-12T15:19:45.801Z,98220.49
2024-03-12T15:23:12.017Z,98217.58
2024-03-12T15:26:50.628Z,98220.88
2024-03-12T15:30:14.010Z,98220.22
2024-03-12T15:33:34.149Z,98220.41
2024-03-12T15:36:52.017Z,98228.34
2024-03-12T15:40:11.495Z,98233.44
2024-03-12T15:43:29.323Z,98235.89
2024-03-12T15:46:48.203Z,98228.99
2024-03-12T15:50:04.579Z,98242.56
2024-03-12T15:53:21.800Z,98239.11
2024-03-12T15:56:39.236Z,98246.66
2024-03-12T15:59:56.742Z,98248.95
2024-03-12T16:03:15.718Z,98249.58
2024-03-12T16:06:35.359Z,98252.05
2024-03-12T16:09:52.806Z,98259.98
2024-03-12T16:13:12.347Z,98261.33
2024-03-12T16:16:29.772Z,98259.69
2024-03-12T16:19:48.382Z,98268.99
2024-03-12T16:23:05.846Z,98269.37
2024-03-12T16:26:23.302Z,98269.72
2024-03-12T16:29:41.420Z,98278.64
2024-03-12T16:32:59.817Z,98279.20
2024-03-12T16:36:20.002Z,98274.23
2024-03-12T16:39:40.277Z,98277.25
2024-03-12T16:42:58.692Z,98280.70
2024-03-12T16:46:19.000Z,98283.72
2024-03-12T16:49:37.707Z,98279.70
2024-03-12T16:52:56.237Z,98289.16
2024-03-12T16:56:25.520Z,98277.97
2024-03-12T16:59:37.666Z,98283.59
2024-03-12T17:02:58.156Z,98283.78
2024-03-12T17:06:19.158Z,98282.51
2024-03-12T17:09:41.298Z,98292.70
2024-03-12T17:13:01.598Z,98287.36
2024-03-12T17:16:22.100Z,98284.16
2024-03-12T17:19:46.643Z,98291.55
2024-03-12T17:23:07.533Z,98297.21
2024-03-12T17:26:38.326Z,98305.64
2024-03-12T17:29:59.191Z,98294.88
2024-03-12T17:33:19.680Z,98302.66
2024-03-12T17:36:40.258Z,98297.92
2024-03-12T17:39:59.470Z,98308.03
2024-03-12T17:43:19.667Z,98307.31
2024-03-12T17:46:39.598Z,98308.66
2024-03-12T17:49:59.261Z,98312.94
2024-03-12T17:53:18.533Z,98317.76
2024-03-12T17:56:38.311Z,98324.22
2024-03-12T17:59:57.369Z,98317.29
2024-03-12T18:03:17.367Z,98322.23
2024-03-12T18:06:38.793Z,98322.23
2024-03-12T18:10:00.735Z,98330.34
2024-03-12T18:13:21.599Z,98332.98
2024-03-12T18:16:39.670Z,98325.88
2024-03-12T18:19:57.175Z,98331.81
2024-03-12T18:23:16.446Z,98332.98
2024-03-12T18:26:31.565Z,98337.34
2024-03-12T18:29:50.933Z,98335.22
2024-03-12T18:33:11.125Z,98336.86
2024-03-12T18:36:28.770Z,98343.14
2024-03-12T18:39:46.137Z,98338.38
2024-03-12T18:43:05.407Z,98341.57
2024-03-12T18:46:23.181Z,98342.05
2024-03-12T18:49:41.832Z,98346.30
2024-03-12T18:53:07.766Z,98336.63
2024-03-12T18:56:27.477Z,98340.27
2024-03-12T18:59:46.206Z,98344.40
2024-03-12T19:03:20.178Z,98350.96
2024-03-12T19:06:43.919Z,98352.91
2024-03-12T19:10:03.171Z,98353.84
2024-03-12T19:13:19.993Z,98346.54
2024-03-12T19:16:40.643Z,98350.48
2024-03-12T19:20:05.141Z,98351.95
2024-03-12T19:23:36.145Z,98349.31
2024-03-12T19:26:56.158Z,98357.86
2024-03-12T19:30:21.420Z,98356.87
2024-03-12T19:33:58.801Z,98350.59
2024-03-12T19:37:19.232Z,98352.86
2024-03-12T19:40:40.061Z,98354.41
2024-03-12T19:44:00.522Z,98353.23
2024-03-12T19:47:25.516Z,98352.05
2024-03-12T19:50:46.293Z,98358.14
2024-03-12T19:54:07.466Z,98356.34
2024-03-12T19:57:26.481Z,98355.06
2024-03-12T20:00:45.805Z,98357.23
2024-03-12T20:04:06.418Z,98358.86
2024-03-12T20:07:25.439Z,98361.06
2024-03-12T20:10:44.674Z,98367.49
2024-03-12T20:14:06.261Z,98369.14
2024-03-12T20:17:24.429Z,98366.21
2024-03-12T20:20:43.473Z,98365.41
2024-03-12T20:24:03.075Z,98373.05
2024-03-12T20:27:27.753Z,98373.20
2024-03-12T20:30:56.043Z,98382.59
2024-03-12T20:34:25.269Z,98374.66
2024-03-12T20:37:51.678Z,98378.14
2024-03-12T20:41:19.337Z,98379.31
2024-03-12T20:44:42.893Z,98385.59
2024-03-12T20:48:03.325Z,98388.05
2024-03-12T20:51:33.692Z,98386.58
2024-03-12T20:54:57.078Z,98390.88
2024-03-12T20:58:17.562Z,98381.82
2024-03-12T21:01:43.211Z,98381.82
2024-03-12T21:05:02.099Z,98383.66
2024-03-12T21:08:21.553Z,98396.86
2024-03-12T21:11:46.939Z,98380.20
2024-03-12T21:15:10.458Z,98389.92
2024-03-12T21:18:29.820Z,98391.28
2024-03-12T21:21:49.220Z,98384.83
2024-03-12T21:25:08.761Z,98390.30
2024-03-12T21:28:26.023Z,98381.38
2024-03-12T21:31:44.327Z,98390.92
2024-03-12T21:35:02.427Z,98393.41
2024-03-12T21:38:20.260Z,98391.58
2024-03-12T21:41:37.950Z,98401.15
2024-03-12T21:44:55.379Z,98397.05
2024-03-12T21:48:16.206Z,98398.22
2024-03-12T21:51:34.795Z,98401.48
2024-03-12T21:54:53.396Z,98399.50
2024-03-12T21:58:12.084Z,98401.15
2024-03-12T22:01:32.006Z,98399.87
2024-03-12T22:04:49.618Z,98406.14
2024-03-12T22:08:08.301Z,98409.30
2024-03-12T22:11:26.458Z,98411.94
2024-03-12T22:14:48.501Z,98409.63
2024-03-12T22:18:11.978Z,98415.39
2024-03-12T22:21:30.412Z,98413.41
2024-03-12T22:24:51.568Z,98415.23
2024-03-12T22:28:13.442Z,98414.91
2024-03-12T22:31:30.921Z,98416.08
2024-03-12T22:34:48.538Z,98417.44
2024-03-12T22:38:07.393Z,98421.91
2024-03-12T22:41:26.689Z,98421.73
2024-03-12T22:44:42.695Z,98426.31
2024-03-12T22:48:01.252Z,98421.22
2024-03-12T22:51:20.862Z,98427.97
2024-03-12T22:54:36.785Z,98431.23
2024-03-12T22:57:56.229Z,98434.24
2024-03-12T23:01:17.939Z,98422.69
2024-03-12T23:04:37.796Z,98430.61
2024-03-12T23:07:56.886Z,98425.33
2024-03-12T23:11:14.602Z,98430.25
2024-03-12T23:14:32.024Z,98431.71
2024-03-12T23:17:50.558Z,98433.73
2024-03-12T23:21:08.013Z,98439.34
2024-03-12T23:24:25.495Z,98441.17
2024-03-12T23:27:50.933Z,98439.52
2024-03-12T23:31:08.428Z,98443.33
2024-03-12T23:34:26.267Z,98440.03
2024-03-12T23:37:46.788Z,98446.30
2024-03-12T23:41:04.152Z,98443.66
2024-03-12T23:44:21.549Z,98446.00
2024-03-12T23:47:39.009Z,98448.31
2024-03-12T23:50:56.402Z,98446.66
2024-03-12T23:54:14.074Z,98448.47
2024-03-12T23:57:32.719Z,98448.16
